Main page
METAR-TAF:

METAR-TAF

Airports :

Jerez Airport

Jerez de la Frontera, Spain

latitude: 36-45N, longitude: 006-04W, elevation: 27 m

Current weather observation

The report was made 26 minutes ago, at 07:00 UTC
Wind 2 kt from the South
Temperature 13°C
Humidity 88%
Pressure 1014 hPa
Visibility 10 km or more
no clouds below 1500 m and no cumulonimbus

METAR: LEJR 210700Z 18002KT CAVOK 13/11 Q1014

Time: 09:26 (07:26 UTC)

Forecast

The report was made 5 hours and 26 minutes ago, at 02:00 UTC
Forecast valid from 21 at 03 UTC to 22 at 03 UTC
Wind 2 kt from variable directions
Visibility 10 km or more
Few clouds at a height of 4000 ft
Probability 30% :
Temporary
from 21 at 14 UTC to 21 at 20 UTC
Wind 10 kt from the South

TAF: LEJR 210200Z 2103/2203 VRB02KT 9999 FEW040 TX23/2115Z TN11/2107Z PROB30 TEMPO 2114/2120 17010KT

Weather observations and forecasts of more than 4000 airports (METAR and TAF reports).

The available stations are represented by yellow and red dots on the map.

Hover mouse over dot to see the name of the station.

Then click to see weather observations and forecasts.

To change the map : click on the green buttons with a black cross to zoom in, on the green button with a dash to zoom out, or on the green arrows for adjacent maps.


METAR-TAF: